createdAt,value
2023-01-20T00:02:14.191Z,0.10
2023-01-20T00:04:40.854Z,0.65
2023-01-20T00:07:07.623Z,0.00
2023-01-20T00:09:34.741Z,0.00
2023-01-20T00:12:01.346Z,0.08
2023-01-20T00:14:28.065Z,0.00
2023-01-20T00:16:57.586Z,0.10
2023-01-20T00:19:24.295Z,0.00
2023-01-20T00:21:50.872Z,0.00
2023-01-20T00:24:17.694Z,0.00
2023-01-20T00:26:44.314Z,0.13
2023-01-20T00:29:10.968Z,0.55
2023-01-20T00:31:38.248Z,0.20
2023-01-20T00:34:05.479Z,0.10
2023-01-20T00:36:32.601Z,0.20
2023-01-20T00:38:59.456Z,0.20
2023-01-20T00:41:26.029Z,0.20
2023-01-20T00:43:52.752Z,0.10
2023-01-20T00:46:19.472Z,0.30
2023-01-20T00:48:46.236Z,0.28
2023-01-20T00:51:13.056Z,0.57
2023-01-20T00:53:39.967Z,0.82
2023-01-20T00:56:07.309Z,0.13
2023-01-20T00:58:34.174Z,0.65
2023-01-20T01:01:01.510Z,0.65
2023-01-20T01:03:28.833Z,0.13
2023-01-20T01:06:05.183Z,0.40
2023-01-20T01:08:31.843Z,0.10
2023-01-20T01:10:58.794Z,0.45
2023-01-20T01:13:25.602Z,0.15
2023-01-20T01:15:53.007Z,0.10
2023-01-20T01:18:19.666Z,0.43
2023-01-20T01:20:46.288Z,0.10
2023-01-20T01:23:13.327Z,0.00
2023-01-20T01:25:40.540Z,1.10
2023-01-20T01:28:07.568Z,0.03
2023-01-20T01:30:34.464Z,0.88
2023-01-20T01:33:01.069Z,0.00
2023-01-20T01:35:27.779Z,0.00
2023-01-20T01:37:54.361Z,0.08
2023-01-20T01:40:21.158Z,0.13
2023-01-20T01:42:47.775Z,0.22
2023-01-20T01:45:14.618Z,0.10
2023-01-20T01:47:43.862Z,0.10
2023-01-20T01:50:19.245Z,0.60
2023-01-20T01:52:49.337Z,0.00
2023-01-20T01:55:18.098Z,0.38
2023-01-20T01:57:45.629Z,0.10
2023-01-20T02:00:13.046Z,0.88
2023-01-20T02:02:41.662Z,2.50
2023-01-20T02:05:08.843Z,0.28
2023-01-20T02:07:36.310Z,0.00
2023-01-20T02:10:02.996Z,0.00
2023-01-20T02:12:29.998Z,0.00
2023-01-20T02:14:59.630Z,0.00
2023-01-20T02:17:32.414Z,0.38
2023-01-20T02:20:17.996Z,1.67
2023-01-20T02:23:02.670Z,0.55
2023-01-20T02:25:46.298Z,0.00
2023-01-20T02:28:28.408Z,0.00
2023-01-20T02:31:10.302Z,0.00
2023-01-20T02:33:44.197Z,0.52
2023-01-20T02:36:25.450Z,0.30
2023-01-20T02:39:03.753Z,1.08
2023-01-20T02:41:40.313Z,0.30
2023-01-20T02:44:30.348Z,0.73
2023-01-20T02:47:18.560Z,0.20
2023-01-20T02:49:45.108Z,0.85
2023-01-20T02:52:16.849Z,0.47
2023-01-20T02:54:52.651Z,0.03
2023-01-20T02:57:26.158Z,0.80
2023-01-20T02:59:57.922Z,0.30
2023-01-20T03:02:28.663Z,0.10
2023-01-20T03:05:03.829Z,0.10
2023-01-20T03:07:33.976Z,1.70
2023-01-20T03:10:07.106Z,0.40
2023-01-20T03:12:45.766Z,0.13
2023-01-20T03:15:13.674Z,1.30
2023-01-20T03:17:40.711Z,0.10
2023-01-20T03:20:08.136Z,0.73
2023-01-20T03:22:34.858Z,0.20
2023-01-20T03:25:02.461Z,0.17
2023-01-20T03:27:29.042Z,0.63
2023-01-20T03:29:55.667Z,0.40
2023-01-20T03:32:26.782Z,0.28
2023-01-20T03:34:57.136Z,0.30
2023-01-20T03:37:24.334Z,0.35
2023-01-20T03:39:52.078Z,1.05
2023-01-20T03:42:34.521Z,1.48
2023-01-20T03:45:03.871Z,0.65
2023-01-20T03:47:30.575Z,0.20
2023-01-20T03:50:42.966Z,0.35
2023-01-20T03:53:37.080Z,0.55
2023-01-20T03:56:51.461Z,1.10
2023-01-20T03:59:21.207Z,1.75
2023-01-20T04:01:49.289Z,0.20
2023-01-20T04:04:19.655Z,0.85
2023-01-20T04:06:50.310Z,0.35
2023-01-20T04:09:31.282Z,0.10
2023-01-20T04:11:59.279Z,1.55
2023-01-20T04:14:26.358Z,0.30
2023-01-20T04:16:57.967Z,1.27
2023-01-20T04:19:26.263Z,0.30
2023-01-20T04:22:17.096Z,0.32
2023-01-20T04:24:52.981Z,0.75
2023-01-20T04:27:19.639Z,0.10
2023-01-20T04:29:46.761Z,0.65
2023-01-20T04:32:13.372Z,1.05
2023-01-20T04:34:40.288Z,0.32
2023-01-20T04:37:07.000Z,3.22
2023-01-20T04:39:33.651Z,0.45
2023-01-20T04:42:00.390Z,0.90
2023-01-20T04:44:27.114Z,0.20
2023-01-20T04:46:58.287Z,1.27
2023-01-20T04:49:25.053Z,1.00
2023-01-20T04:51:52.087Z,1.27
2023-01-20T04:54:18.738Z,1.73
2023-01-20T04:56:45.425Z,0.75
2023-01-20T04:59:12.056Z,0.20
2023-01-20T05:01:39.063Z,1.45
2023-01-20T05:04:05.907Z,0.88
2023-01-20T05:06:32.493Z,0.20
2023-01-20T05:08:59.195Z,1.08
2023-01-20T05:11:26.139Z,2.60
2023-01-20T05:13:52.759Z,0.50
2023-01-20T05:16:24.132Z,0.60
2023-01-20T05:18:51.430Z,1.67
2023-01-20T05:21:18.115Z,0.63
2023-01-20T05:23:44.755Z,3.75
2023-01-20T05:26:11.870Z,3.00
2023-01-20T05:28:38.464Z,7.13
2023-01-20T05:31:05.150Z,2.83
2023-01-20T05:33:31.847Z,4.95
2023-01-20T05:35:58.385Z,10.35
2023-01-20T05:38:25.410Z,20.33
2023-01-20T05:40:59.972Z,15.52
2023-01-20T05:43:26.791Z,13.18
2023-01-20T05:45:53.726Z,16.50
2023-01-20T05:48:21.195Z,14.80
2023-01-20T05:50:48.326Z,15.48
2023-01-20T05:53:15.538Z,12.70
2023-01-20T05:55:42.208Z,9.70
2023-01-20T05:58:09.181Z,8.70
2023-01-20T06:00:36.397Z,7.57
2023-01-20T06:03:03.307Z,2.47
2023-01-20T06:05:30.225Z,3.50
2023-01-20T06:07:57.888Z,5.97
2023-01-20T06:10:28.107Z,7.00
2023-01-20T06:12:55.984Z,8.43
2023-01-20T06:15:24.326Z,3.95
2023-01-20T06:17:51.697Z,4.40
2023-01-20T06:20:19.176Z,3.88
2023-01-20T06:22:46.059Z,12.07
2023-01-20T06:25:13.611Z,7.22
2023-01-20T06:27:40.537Z,9.32
2023-01-20T06:30:09.195Z,8.18
2023-01-20T06:32:35.888Z,7.53
2023-01-20T06:35:02.560Z,5.28
2023-01-20T06:37:29.170Z,2.72
2023-01-20T06:39:56.011Z,3.78
2023-01-20T06:42:22.573Z,2.90
2023-01-20T06:44:49.453Z,1.10
2023-01-20T06:47:16.038Z,2.72
2023-01-20T06:49:42.782Z,4.78
2023-01-20T06:52:09.950Z,1.83
2023-01-20T06:54:36.643Z,1.20
2023-01-20T06:57:03.492Z,1.63
2023-01-20T06:59:30.136Z,1.15
2023-01-20T07:01:57.179Z,0.60
2023-01-20T07:04:23.898Z,1.40
2023-01-20T07:06:50.849Z,0.80
2023-01-20T07:09:17.895Z,2.35
2023-01-20T07:11:44.797Z,1.20
2023-01-20T07:14:11.843Z,1.30
2023-01-20T07:16:38.624Z,3.63
2023-01-20T07:19:06.279Z,1.67
2023-01-20T07:21:32.935Z,1.65
2023-01-20T07:24:01.811Z,4.10
2023-01-20T07:26:29.096Z,1.50
2023-01-20T07:28:57.581Z,1.33
2023-01-20T07:31:26.574Z,2.90
2023-01-20T07:33:56.412Z,3.72
2023-01-20T07:36:23.950Z,6.20
2023-01-20T07:38:51.209Z,1.95
2023-01-20T07:41:20.135Z,1.67
2023-01-20T07:43:52.275Z,8.70
2023-01-20T07:46:20.074Z,3.85
2023-01-20T07:48:46.969Z,5.90
2023-01-20T07:51:15.425Z,2.55
2023-01-20T07:53:47.416Z,2.75
2023-01-20T07:56:17.076Z,2.45
2023-01-20T07:58:47.670Z,4.45
2023-01-20T08:01:20.365Z,2.33
2023-01-20T08:03:48.217Z,4.88
2023-01-20T08:06:17.974Z,3.10
2023-01-20T08:08:45.400Z,3.28
2023-01-20T08:11:14.821Z,2.33
2023-01-20T08:13:43.721Z,2.97
2023-01-20T08:16:13.443Z,2.28
2023-01-20T08:18:40.878Z,1.70
2023-01-20T08:21:08.957Z,2.13
2023-01-20T08:23:36.487Z,2.03
2023-01-20T08:26:06.198Z,3.50
2023-01-20T08:28:35.829Z,2.88
2023-01-20T08:31:12.016Z,3.75
2023-01-20T08:33:39.886Z,6.63
2023-01-20T08:36:17.366Z,1.70
2023-01-20T08:38:45.007Z,3.67
2023-01-20T08:41:21.167Z,4.78
2023-01-20T08:43:48.507Z,3.40
2023-01-20T08:46:17.343Z,2.63
2023-01-20T08:48:44.495Z,3.63
2023-01-20T08:51:15.973Z,4.78
2023-01-20T08:53:43.061Z,6.03
2023-01-20T08:56:11.090Z,4.32
2023-01-20T08:58:38.727Z,5.32
2023-01-20T09:01:10.936Z,5.03
2023-01-20T09:03:38.391Z,2.72
2023-01-20T09:06:05.444Z,5.28
2023-01-20T09:08:32.599Z,2.40
2023-01-20T09:11:04.858Z,2.35
2023-01-20T09:13:32.034Z,2.38
2023-01-20T09:15:58.741Z,3.53
2023-01-20T09:18:25.466Z,0.75
2023-01-20T09:20:52.274Z,0.70
2023-01-20T09:23:18.910Z,2.30
2023-01-20T09:25:46.021Z,3.33
2023-01-20T09:28:13.730Z,1.35
2023-01-20T09:30:43.133Z,2.17
2023-01-20T09:33:10.943Z,0.45
2023-01-20T09:35:37.849Z,0.32
2023-01-20T09:38:23.629Z,0.65
2023-01-20T09:41:15.035Z,1.02
2023-01-20T09:43:57.283Z,0.73
2023-01-20T09:46:43.169Z,1.42
2023-01-20T09:49:39.105Z,0.47
2023-01-20T09:52:37.195Z,0.50
2023-01-20T09:55:10.775Z,0.93
2023-01-20T09:57:42.630Z,3.20
2023-01-20T10:00:18.772Z,0.68
2023-01-20T10:02:52.092Z,0.82
2023-01-20T10:05:23.973Z,0.95
2023-01-20T10:08:02.830Z,0.55
2023-01-20T10:10:38.305Z,0.22
2023-01-20T10:13:26.557Z,0.20
2023-01-20T10:15:55.411Z,0.80
2023-01-20T10:18:35.356Z,0.90
2023-01-20T10:21:10.378Z,1.30
2023-01-20T10:23:43.115Z,0.68
2023-01-20T10:26:22.108Z,1.08
2023-01-20T10:28:58.810Z,1.20
2023-01-20T10:31:36.940Z,0.10
2023-01-20T10:34:12.786Z,2.22
2023-01-20T10:36:43.819Z,0.80
2023-01-20T10:39:28.595Z,0.35
2023-01-20T10:42:05.033Z,1.20
2023-01-20T10:44:35.309Z,3.42
2023-01-20T10:47:18.000Z,0.75
2023-01-20T10:50:17.113Z,1.88
2023-01-20T10:52:55.623Z,0.50
2023-01-20T10:55:25.271Z,4.47
2023-01-20T10:57:59.059Z,2.75
2023-01-20T11:00:29.789Z,2.55
2023-01-20T11:03:00.291Z,0.52
2023-01-20T11:05:32.299Z,2.25
2023-01-20T11:08:00.331Z,4.30
2023-01-20T11:10:30.150Z,1.70
2023-01-20T11:13:01.814Z,2.17
2023-01-20T11:15:29.803Z,4.20
2023-01-20T11:18:14.641Z,24.85
2023-01-20T11:20:58.133Z,27.33
2023-01-20T11:23:52.390Z,27.73
2023-01-20T11:26:32.454Z,22.17
2023-01-20T11:28:59.424Z,12.93
2023-01-20T11:31:35.308Z,5.00
2023-01-20T11:34:20.547Z,3.63
2023-01-20T11:36:47.652Z,5.35
2023-01-20T11:39:30.917Z,5.13
2023-01-20T11:42:14.096Z,1.85
2023-01-20T11:44:55.113Z,1.98
2023-01-20T11:47:26.633Z,3.08
2023-01-20T11:50:23.283Z,2.22
2023-01-20T11:52:50.032Z,0.63
2023-01-20T11:55:16.594Z,0.82
2023-01-20T11:57:52.440Z,0.10
2023-01-20T12:00:19.043Z,0.10
2023-01-20T12:03:10.906Z,0.20
2023-01-20T12:05:48.504Z,0.20
2023-01-20T12:08:21.479Z,0.13
2023-01-20T12:10:49.081Z,4.43
2023-01-20T12:13:29.917Z,1.48
2023-01-20T12:16:01.375Z,0.20
2023-01-20T12:18:39.063Z,1.88
2023-01-20T12:21:18.305Z,1.65
2023-01-20T12:23:50.617Z,2.95
2023-01-20T12:26:20.135Z,3.30
2023-01-20T12:29:04.933Z,1.80
2023-01-20T12:31:32.710Z,4.57
2023-01-20T12:34:12.543Z,1.65
2023-01-20T12:36:54.078Z,0.50
2023-01-20T12:39:26.869Z,1.48
2023-01-20T12:42:37.433Z,2.55
2023-01-20T12:45:29.077Z,1.20
2023-01-20T12:48:14.461Z,1.25
2023-01-20T12:51:13.189Z,0.20
2023-01-20T12:53:52.777Z,0.20
2023-01-20T12:56:40.695Z,0.20
2023-01-20T12:59:43.656Z,0.30
2023-01-20T13:02:23.791Z,1.17
2023-01-20T13:05:20.747Z,1.77
2023-01-20T13:08:36.690Z,0.40
2023-01-20T13:11:50.138Z,0.50
2023-01-20T13:14:16.804Z,1.85
2023-01-20T13:16:52.575Z,1.48
2023-01-20T13:19:32.564Z,2.35
2023-01-20T13:22:20.085Z,4.30
2023-01-20T13:24:50.591Z,2.90
2023-01-20T13:27:29.211Z,1.98
2023-01-20T13:29:58.493Z,0.60
2023-01-20T13:32:30.966Z,1.10
2023-01-20T13:34:59.256Z,0.95
2023-01-20T13:37:25.894Z,0.90
2023-01-20T13:39:54.616Z,1.33
2023-01-20T13:42:36.714Z,1.10
2023-01-20T13:45:12.741Z,2.10
2023-01-20T13:47:54.095Z,2.15
2023-01-20T13:50:24.353Z,6.15
2023-01-20T13:52:50.959Z,1.33
2023-01-20T13:55:31.005Z,0.30
2023-01-20T13:57:58.080Z,0.82
2023-01-20T14:00:24.853Z,0.30
2023-01-20T14:02:53.215Z,0.30
2023-01-20T14:05:31.887Z,0.93
2023-01-20T14:07:59.008Z,0.28
2023-01-20T14:10:26.280Z,0.30
2023-01-20T14:12:53.074Z,1.02
2023-01-20T14:15:24.692Z,0.20
2023-01-20T14:17:58.610Z,0.57
2023-01-20T14:20:27.791Z,0.20
2023-01-20T14:22:54.549Z,0.30
2023-01-20T14:25:25.581Z,0.80
2023-01-20T14:27:53.175Z,0.30
2023-01-20T14:30:27.941Z,0.90
2023-01-20T14:32:54.810Z,0.20
2023-01-20T14:35:31.370Z,0.08
2023-01-20T14:37:59.103Z,0.10
2023-01-20T14:40:28.877Z,0.10
2023-01-20T14:43:01.467Z,0.10
2023-01-20T14:45:31.165Z,0.10
2023-01-20T14:47:59.978Z,0.35
2023-01-20T14:50:27.287Z,0.08
2023-01-20T14:52:54.282Z,0.10
2023-01-20T14:56:16.276Z,0.20
2023-01-20T14:58:48.174Z,0.20
2023-01-20T15:01:23.903Z,0.63
2023-01-20T15:03:58.647Z,2.42
2023-01-20T15:06:26.528Z,0.20
2023-01-20T15:09:06.024Z,0.30
2023-01-20T15:11:33.919Z,0.30
2023-01-20T15:14:01.127Z,1.60
2023-01-20T15:16:49.503Z,0.20
2023-01-20T15:19:20.657Z,0.30
2023-01-20T15:21:51.431Z,0.43
2023-01-20T15:24:23.777Z,0.40
2023-01-20T15:26:52.676Z,0.40
2023-01-20T15:29:30.041Z,0.40
2023-01-20T15:31:59.257Z,0.40
2023-01-20T15:34:26.818Z,0.60
2023-01-20T15:36:54.957Z,0.40
2023-01-20T15:39:24.670Z,0.30
2023-01-20T15:41:55.040Z,0.65
2023-01-20T15:44:22.241Z,0.50
2023-01-20T15:46:48.980Z,0.40
2023-01-20T15:49:16.600Z,0.52
2023-01-20T15:51:44.500Z,0.45
2023-01-20T15:54:12.000Z,0.35
2023-01-20T15:56:41.532Z,0.40
2023-01-20T15:59:16.743Z,1.20
2023-01-20T16:01:47.365Z,0.50
2023-01-20T16:04:14.075Z,0.50
2023-01-20T16:06:41.021Z,1.92
2023-01-20T16:09:30.032Z,0.70
2023-01-20T16:11:56.675Z,0.73
2023-01-20T16:14:23.256Z,1.38
2023-01-20T16:16:50.240Z,6.18
2023-01-20T16:19:17.605Z,1.33
2023-01-20T16:21:45.600Z,1.95
2023-01-20T16:24:12.583Z,1.75
2023-01-20T16:26:39.494Z,1.52
2023-01-20T16:29:06.399Z,0.90
2023-01-20T16:31:33.737Z,0.90
2023-01-20T16:34:00.462Z,12.32
2023-01-20T16:36:27.070Z,1.05
2023-01-20T16:38:54.137Z,2.20
2023-01-20T16:41:26.088Z,2.17
2023-01-20T16:43:54.245Z,2.15
2023-01-20T16:46:26.941Z,3.88
2023-01-20T16:48:59.513Z,4.78
2023-01-20T16:51:27.005Z,6.28
2023-01-20T16:53:54.545Z,6.50
2023-01-20T16:56:23.464Z,6.97
2023-01-20T16:58:52.251Z,6.18
2023-01-20T17:01:24.857Z,5.80
2023-01-20T17:03:54.299Z,5.55
2023-01-20T17:06:24.014Z,4.22
2023-01-20T17:08:56.282Z,4.10
2023-01-20T17:11:31.812Z,6.75
2023-01-20T17:13:59.050Z,6.13
2023-01-20T17:16:26.304Z,5.60
2023-01-20T17:18:55.244Z,6.72
2023-01-20T17:21:23.257Z,5.25
2023-01-20T17:23:52.019Z,5.43
2023-01-20T17:26:19.692Z,6.22
2023-01-20T17:28:47.489Z,4.72
2023-01-20T17:31:14.442Z,6.40
2023-01-20T17:33:47.057Z,8.52
2023-01-20T17:36:13.982Z,3.97
2023-01-20T17:38:40.629Z,2.75
2023-01-20T17:41:08.250Z,1.25
2023-01-20T17:43:40.476Z,3.08
2023-01-20T17:46:14.594Z,3.28
2023-01-20T17:48:41.729Z,2.25
2023-01-20T17:51:15.805Z,2.58
2023-01-20T17:53:43.171Z,4.85
2023-01-20T17:56:13.161Z,3.75
2023-01-20T17:58:41.162Z,4.30
2023-01-20T18:01:11.597Z,4.28
2023-01-20T18:03:39.722Z,5.43
2023-01-20T18:06:08.849Z,4.75
2023-01-20T18:08:35.663Z,4.65
2023-01-20T18:11:10.965Z,5.22
2023-01-20T18:13:38.382Z,2.67
2023-01-20T18:16:07.251Z,2.28
2023-01-20T18:18:34.175Z,3.50
2023-01-20T18:21:12.170Z,2.50
2023-01-20T18:23:39.609Z,2.72
2023-01-20T18:26:07.171Z,2.42
2023-01-20T18:28:35.491Z,2.30
2023-01-20T18:31:11.674Z,2.83
2023-01-20T18:33:44.709Z,4.05
2023-01-20T18:36:14.945Z,3.60
2023-01-20T18:38:45.116Z,3.90
2023-01-20T18:41:13.877Z,4.00
2023-01-20T18:43:41.551Z,4.55
2023-01-20T18:46:09.816Z,5.03
2023-01-20T18:48:41.205Z,5.90
2023-01-20T18:51:10.955Z,6.43
2023-01-20T18:53:37.810Z,5.47
2023-01-20T18:56:07.706Z,5.70
2023-01-20T18:58:36.044Z,6.15
2023-01-20T19:01:07.424Z,7.05
2023-01-20T19:03:35.185Z,6.72
2023-01-20T19:06:11.296Z,7.10
2023-01-20T19:08:40.252Z,10.07
2023-01-20T19:11:10.398Z,7.45
2023-01-20T19:13:38.802Z,9.60
2023-01-20T19:16:09.108Z,7.72
2023-01-20T19:18:40.576Z,6.00
2023-01-20T19:21:10.543Z,5.43
2023-01-20T19:23:37.525Z,5.35
2023-01-20T19:26:06.833Z,6.47
2023-01-20T19:28:34.806Z,3.72
2023-01-20T19:31:06.992Z,5.07
2023-01-20T19:33:34.544Z,5.20
2023-01-20T19:36:02.971Z,5.10
2023-01-20T19:38:29.742Z,5.30
2023-01-20T19:41:07.990Z,4.82
2023-01-20T19:43:35.673Z,4.25
2023-01-20T19:46:07.320Z,4.63
2023-01-20T19:48:34.165Z,5.05
2023-01-20T19:51:04.878Z,3.22
2023-01-20T19:53:32.534Z,4.03
2023-01-20T19:56:10.029Z,3.25
2023-01-20T19:58:37.640Z,3.33
2023-01-20T20:01:08.698Z,3.00
2023-01-20T20:03:35.887Z,1.40
2023-01-20T20:06:03.446Z,1.50
2023-01-20T20:08:30.220Z,1.73
2023-01-20T20:10:57.121Z,2.20
2023-01-20T20:13:24.312Z,2.78
2023-01-20T20:16:03.769Z,3.03
2023-01-20T20:18:30.632Z,3.53
2023-01-20T20:20:57.808Z,3.35
2023-01-20T20:23:24.633Z,3.78
2023-01-20T20:25:56.312Z,4.50
2023-01-20T20:28:27.644Z,3.97
2023-01-20T20:30:58.175Z,4.00
2023-01-20T20:33:24.943Z,3.78
2023-01-20T20:35:51.985Z,5.90
2023-01-20T20:38:18.807Z,5.38
2023-01-20T20:40:45.540Z,6.47
2023-01-20T20:43:12.257Z,7.97
2023-01-20T20:45:38.946Z,6.70
2023-01-20T20:48:05.929Z,8.38
2023-01-20T20:50:32.754Z,7.32
2023-01-20T20:52:59.406Z,6.40
2023-01-20T20:55:26.332Z,8.38
2023-01-20T20:57:53.081Z,9.77
2023-01-20T21:00:23.580Z,10.98
2023-01-20T21:02:50.699Z,10.65
2023-01-20T21:05:18.996Z,7.75
2023-01-20T21:07:45.982Z,7.88
2023-01-20T21:10:14.324Z,8.52
2023-01-20T21:12:41.549Z,12.75
2023-01-20T21:15:10.443Z,7.88
2023-01-20T21:17:40.438Z,7.18
2023-01-20T21:20:08.025Z,6.75
2023-01-20T21:22:35.092Z,7.65
2023-01-20T21:25:01.741Z,6.60
2023-01-20T21:27:28.354Z,6.93
2023-01-20T21:29:54.911Z,8.20
2023-01-20T21:32:21.562Z,7.05
2023-01-20T21:34:48.184Z,9.70
2023-01-20T21:37:15.022Z,13.93
2023-01-20T21:39:41.669Z,9.40
2023-01-20T21:42:09.186Z,7.28
2023-01-20T21:44:36.545Z,7.95
2023-01-20T21:47:08.472Z,8.55
2023-01-20T21:49:56.784Z,7.43
2023-01-20T21:52:42.595Z,9.00
2023-01-20T21:55:19.361Z,11.25
2023-01-20T21:57:48.924Z,12.40
2023-01-20T22:00:17.698Z,13.38
2023-01-20T22:02:47.496Z,15.45
2023-01-20T22:05:14.185Z,14.27
2023-01-20T22:07:40.879Z,12.70
2023-01-20T22:10:08.066Z,17.05
2023-01-20T22:12:35.625Z,17.00
2023-01-20T22:15:03.918Z,20.25
2023-01-20T22:17:30.892Z,14.07
2023-01-20T22:19:57.523Z,13.32
2023-01-20T22:22:24.185Z,14.02
2023-01-20T22:24:50.889Z,15.45
2023-01-20T22:27:17.622Z,18.48
2023-01-20T22:29:44.233Z,13.70
2023-01-20T22:32:11.301Z,15.65
2023-01-20T22:34:37.840Z,13.13
2023-01-20T22:37:04.635Z,12.27
2023-01-20T22:39:31.309Z,9.77
2023-01-20T22:41:57.918Z,10.40
2023-01-20T22:44:24.482Z,11.95
2023-01-20T22:46:51.512Z,13.85
2023-01-20T22:49:18.720Z,15.30
2023-01-20T22:51:45.332Z,16.30
2023-01-20T22:54:11.945Z,16.17
2023-01-20T22:56:39.240Z,15.27
2023-01-20T22:59:06.207Z,19.77
2023-01-20T23:01:35.279Z,17.42
2023-01-20T23:04:05.287Z,19.55
2023-01-20T23:06:35.416Z,17.90
2023-01-20T23:09:06.165Z,17.15
2023-01-20T23:11:34.044Z,19.35
2023-01-20T23:14:00.782Z,18.90
2023-01-20T23:16:27.838Z,19.58
2023-01-20T23:18:54.578Z,20.52
2023-01-20T23:21:21.940Z,16.88
2023-01-20T23:23:54.710Z,18.38
2023-01-20T23:26:24.448Z,14.13
2023-01-20T23:28:52.832Z,16.73
2023-01-20T23:31:20.758Z,10.80
2023-01-20T23:33:47.793Z,11.80
2023-01-20T23:36:19.840Z,13.90
2023-01-20T23:38:46.753Z,20.23
2023-01-20T23:41:14.315Z,17.23
2023-01-20T23:43:41.723Z,17.02
2023-01-20T23:46:09.447Z,15.93
2023-01-20T23:48:36.350Z,17.13
2023-01-20T23:51:04.008Z,13.35
2023-01-20T23:53:32.354Z,18.00
2023-01-20T23:56:00.681Z,17.73
2023-01-20T23:58:27.389Z,11.88
